Tenerife > ESTACION METEOROLÓGICA Güímar

DATOS ACTUALES Online

Ultima actulizacion 20 minutos

19.8 ºC

Temperatura

51

Humedad (%)

1022.2

Presión (mb)

0

Precipitación (mm)

6.7 S

Viento (Km/h)

DATOS DIARIOS

Temperatura últimas 24 horas (ºC)

Humedad últimas 24 horas (%)

Presión atmosférica últimas 24 horas (mb)

Precipitaciones últimas 23 horas (mm)

Viento últimas 24 horas (Km/h)

Hora Temperatura (°C) ºC Precipitación (mm) mm Presión (mb) mb Humedad (%) % Viento (Km/h) km/h
19 - 11:00 16.5 0.4 1022 79 6.3 SW
19 - 12:00 16.7 0.4 1022 81 5.9 S
19 - 13:00 16.7 0.4 1022 81 5.7 SW
19 - 14:00 17.9 0.4 1021 75 6.2 S
19 - 15:00 17.8 0.4 1020 78 6.7 S
19 - 16:00 18 0.4 1020 79 6.6 S
19 - 17:00 17.5 0.4 1020 81 6.2 S
19 - 18:00 17.3 0.4 1020 80 5.7 S
19 - 19:00 17.1 0.4 1020 78 5.5 S
19 - 20:00 16.8 0.4 1021 78 4.8 S
19 - 21:00 16.3 0.4 1021 80 3.3 SW
19 - 22:00 15.2 0.4 1022 82 2.2 SW
19 - 23:00 15.5 0.4 1022 70 3.1 W
20 - 00:00 15.2 0.4 1022 52 0.5 O
20 - 01:00 15.6 0 1022 51 2.2 SW
20 - 02:00 19.1 0 1022 40 3.9 SW
20 - 03:00 19.2 0 1021 38 4 SW
20 - 04:00 18.9 0 1021 40 4.5 SW
20 - 05:00 18.1 0 1021 44 3.5 SW
20 - 06:00 17.9 0 1020 46 3.7 SW
20 - 07:00 18.2 0 1020 44 3.2 SW
20 - 08:00 18.1 0 1020 48 3.8 SW
20 - 09:00 18.3 0 1021 48 4.1 S
20 - 10:00 18.8 0 1021 51 4.5 S
20 - 11:00 19.7 0 1022 50 4.4 S
Apalmet utiliza cookies propias y de terceros para mejorar la usabilidad y la experiencia web. Política de cookies.